• Join FlightAware (Why Join?)
  • Login
  • US Flag 
07:37AM EDT


 

Airport Tracker/Info


-or-


 

Live Flight TrackerFlight Track Log ✈ THU850 ✈ 18-Jul-2013 ✈ CYGQ - CYQT

Flight Track Log - Related Links

Times and Time Zones

All times are in EDT time to prevent confusion due to time zone crossing. See the THU850 flight status page for this flight to view local times or setup timezone preferences in your user account.

Time Position Orientation Groundspeed Altitude Reporting Facility
EDT Latitude Longitude Course Direction KTS MPH feet Rate Location/Type
02:53PM 49.6167 -87.1333 232° Southwest 180 207 9,400  Level Winnipeg Center
02:54PM 49.5833 -87.2000 232° Southwest 180 207 10,800 1,500 Climbing Winnipeg Center
02:55PM 49.5667 -87.2500 243° Southwest 190 219 12,500 1,380 Climbing Winnipeg Center
02:56PM 49.5167 -87.3167 221° Southwest 200 230 13,600 780 Climbing Winnipeg Center
02:57PM 49.4667 -87.4000 227° Southwest 220 253 14,100 240 Climbing Winnipeg Center
02:58PM 49.4333 -87.4667 232° Southwest 240 276 14,100  Level Winnipeg Center
02:59PM 49.3833 -87.5500 227° Southwest 260 299 14,100  Level Winnipeg Center
03:00PM 49.3167 -87.6333 219° Southwest 260 299 14,100  Level Winnipeg Center
03:01PM 49.2833 -87.7167 239° Southwest 250 288 14,100 -60 Level Winnipeg Center
03:02PM 49.2333 -87.8000 227° Southwest 250 288 14,000  Descending Winnipeg Center
03:03PM 49.1833 -87.8667 221° Southwest 250 288 14,100  Climbing Winnipeg Center
03:04PM 49.1500 -87.9500 239° Southwest 240 276 14,100  Level Winnipeg Center
03:05PM 49.1000 -88.0167 221° Southwest 240 276 14,100  Level Winnipeg Center
03:06PM 49.0667 -88.1000 239° Southwest 240 276 14,100 -60 Level Winnipeg Center
03:07PM 49.0167 -88.1833 228° Southwest 240 276 14,000 -60 Descending Winnipeg Center
03:08PM 48.9667 -88.2333 213° Southwest 240 276 14,000  Level Winnipeg Center
03:09PM 48.9333 -88.3333 243° Southwest 240 276 14,000 -60 Level Winnipeg Center
03:10PM 48.8833 -88.4167 228° Southwest 240 276 13,900  Descending Winnipeg Center
03:11PM 48.8333 -88.5000 228° Southwest 240 276 14,000  Climbing Winnipeg Center
03:12PM 48.8000 -88.5500 225° Southwest 240 276 14,000 -420 Level Winnipeg Center
03:13PM 48.7500 -88.6333 228° Southwest 240 276 13,200 -900 Descending Winnipeg Center
03:14PM 48.7000 -88.7167 228° Southwest 250 288 12,200 -960 Descending Winnipeg Center
03:15PM 48.6500 -88.7833 221° Southwest 240 276 11,400 -1,080 Descending Winnipeg Center
03:16PM 48.6167 -88.8667 239° Southwest 230 265 10,100 -1,200 Descending Winnipeg Center
03:17PM 48.5833 -88.9500 239° Southwest 220 253 9,100 -1,020 Descending Winnipeg Center
03:18PM 48.5500 -89.0000 225° Southwest 210 242 8,100 -900 Descending Winnipeg Center
03:19PM 48.5333 -89.0833 253° West 210 242 7,300 -660 Descending Winnipeg Center
03:20PM 48.5000 -89.1667 239° Southwest 190 219 6,800 -660 Descending Winnipeg Center
03:21PM 48.4833 -89.2333 249° West 190 219 6,000 -900 Descending Winnipeg Center
03:22PM 48.4833 -89.3167 270° West 180 207 5,100 -720 Descending Winnipeg Center
03:23PM 48.4500 -89.3667 225° Southwest 180 207 4,600 -300 Descending Winnipeg Center
03:24PM 48.4333 -89.4500 253° West 180 207 4,500 -180 Descending Winnipeg Center
03:25PM 48.4333 -89.5333 270° West 180 207 4,300 -240 Descending Winnipeg Center
03:26PM 48.4000 -89.6000 233° Southwest 200 230 4,100 -120 Descending Winnipeg Center
03:27PM 48.3667 -89.6333 214° Southwest 210 242 4,100 -300 Level Winnipeg Center
03:28PM 48.3167 -89.6167 168° South 180 207 3,500 -540 Descending Winnipeg Center
03:29PM 48.3000 -89.5500 111° Southeast 230 265 3,100 -240 Descending Winnipeg Center
03:30PM 48.3000 -89.4667 90° East 200 230 3,100 -360 Level Winnipeg Center
03:31PM 48.3167 -89.4167 63° Northeast 140 161 2,400 -780 Descending Winnipeg Center
03:32PM 48.3333 -89.3667 63° Northeast 140 161 1,600 -780 Descending Winnipeg Center
03:33PM 48.3500 -89.3167 63° Northeast 130 150 900 -480 Descending Winnipeg Center
03:34PM 48.3667 -89.2833 53° Northeast 30 35 700 -240 Descending Winnipeg Center